sensor_id;sensor_type;location;lat;lon;timestamp;temperature;humidity
12006;DHT22;6062;47.294;12.182;2023-02-19T00:01:40;8.40;35.90
12006;DHT22;6062;47.294;12.182;2023-02-19T00:04:12;8.40;36.20
12006;DHT22;6062;47.294;12.182;2023-02-19T00:06:43;8.40;35.90
12006;DHT22;6062;47.294;12.182;2023-02-19T00:09:11;8.40;35.70
12006;DHT22;6062;47.294;12.182;2023-02-19T00:11:39;8.40;35.90
12006;DHT22;6062;47.294;12.182;2023-02-19T00:14:06;8.40;35.80
12006;DHT22;6062;47.294;12.182;2023-02-19T00:16:33;8.40;35.30
12006;DHT22;6062;47.294;12.182;2023-02-19T00:19:02;8.40;35.50
12006;DHT22;6062;47.294;12.182;2023-02-19T00:21:30;8.40;35.40
12006;DHT22;6062;47.294;12.182;2023-02-19T00:23:58;8.40;35.80
12006;DHT22;6062;47.294;12.182;2023-02-19T00:26:27;8.40;35.90
12006;DHT22;6062;47.294;12.182;2023-02-19T00:28:54;8.40;36.20
12006;DHT22;6062;47.294;12.182;2023-02-19T00:31:28;8.40;36.20
12006;DHT22;6062;47.294;12.182;2023-02-19T00:33:58;8.40;36.30
12006;DHT22;6062;47.294;12.182;2023-02-19T00:36:26;8.40;36.20
12006;DHT22;6062;47.294;12.182;2023-02-19T00:38:53;8.40;36.30
12006;DHT22;6062;47.294;12.182;2023-02-19T00:41:20;8.40;36.50
12006;DHT22;6062;47.294;12.182;2023-02-19T00:44:10;8.40;36.30
12006;DHT22;6062;47.294;12.182;2023-02-19T00:46:38;8.40;35.90
12006;DHT22;6062;47.294;12.182;2023-02-19T00:49:07;8.40;35.70
12006;DHT22;6062;47.294;12.182;2023-02-19T00:51:37;8.40;35.90
12006;DHT22;6062;47.294;12.182;2023-02-19T00:54:04;8.40;36.20
12006;DHT22;6062;47.294;12.182;2023-02-19T00:56:30;8.30;36.10
12006;DHT22;6062;47.294;12.182;2023-02-19T00:58:56;8.30;36.10
12006;DHT22;6062;47.294;12.182;2023-02-19T01:01:22;8.30;36.10
12006;DHT22;6062;47.294;12.182;2023-02-19T01:03:48;8.20;36.50
12006;DHT22;6062;47.294;12.182;2023-02-19T01:06:16;8.20;36.50
12006;DHT22;6062;47.294;12.182;2023-02-19T01:08:43;8.10;35.90
12006;DHT22;6062;47.294;12.182;2023-02-19T01:11:11;8.10;35.30
12006;DHT22;6062;47.294;12.182;2023-02-19T01:13:38;8.10;35.40
12006;DHT22;6062;47.294;12.182;2023-02-19T01:16:13;8.00;35.70
12006;DHT22;6062;47.294;12.182;2023-02-19T01:18:41;8.00;35.80
12006;DHT22;6062;47.294;12.182;2023-02-19T01:21:11;7.90;35.50
12006;DHT22;6062;47.294;12.182;2023-02-19T01:23:39;7.90;35.40
12006;DHT22;6062;47.294;12.182;2023-02-19T01:26:11;7.90;35.30
12006;DHT22;6062;47.294;12.182;2023-02-19T01:28:39;7.90;35.10
12006;DHT22;6062;47.294;12.182;2023-02-19T01:31:07;7.90;35.30
12006;DHT22;6062;47.294;12.182;2023-02-19T01:33:36;7.90;35.60
12006;DHT22;6062;47.294;12.182;2023-02-19T01:36:03;7.90;35.50
12006;DHT22;6062;47.294;12.182;2023-02-19T01:38:29;7.90;35.40
12006;DHT22;6062;47.294;12.182;2023-02-19T01:40:57;7.90;35.50
12006;DHT22;6062;47.294;12.182;2023-02-19T01:43:26;7.90;35.10
12006;DHT22;6062;47.294;12.182;2023-02-19T01:45:52;7.90;35.20
12006;DHT22;6062;47.294;12.182;2023-02-19T01:48:24;7.90;34.90
12006;DHT22;6062;47.294;12.182;2023-02-19T01:53:25;7.90;35.70
12006;DHT22;6062;47.294;12.182;2023-02-19T01:55:56;7.90;35.70
12006;DHT22;6062;47.294;12.182;2023-02-19T01:58:28;7.90;35.60
12006;DHT22;6062;47.294;12.182;2023-02-19T02:00:56;7.90;35.10
12006;DHT22;6062;47.294;12.182;2023-02-19T02:03:23;7.90;35.10
12006;DHT22;6062;47.294;12.182;2023-02-19T02:05:52;7.90;35.60
12006;DHT22;6062;47.294;12.182;2023-02-19T02:08:24;7.90;36.00
12006;DHT22;6062;47.294;12.182;2023-02-19T02:11:09;7.90;35.40
12006;DHT22;6062;47.294;12.182;2023-02-19T02:13:36;7.90;35.30
12006;DHT22;6062;47.294;12.182;2023-02-19T02:16:13;7.90;34.90
12006;DHT22;6062;47.294;12.182;2023-02-19T02:36:05;7.90;35.60
12006;DHT22;6062;47.294;12.182;2023-02-19T02:38:37;7.80;35.70
12006;DHT22;6062;47.294;12.182;2023-02-19T02:41:05;7.80;36.20
12006;DHT22;6062;47.294;12.182;2023-02-19T02:43:31;7.80;36.30
12006;DHT22;6062;47.294;12.182;2023-02-19T02:45:57;7.80;36.20
12006;DHT22;6062;47.294;12.182;2023-02-19T02:54:08;7.80;35.80
12006;DHT22;6062;47.294;12.182;2023-02-19T02:56:57;7.80;36.30
12006;DHT22;6062;47.294;12.182;2023-02-19T02:59:31;7.80;36.50
12006;DHT22;6062;47.294;12.182;2023-02-19T03:02:06;7.80;36.90
12006;DHT22;6062;47.294;12.182;2023-02-19T03:07:35;7.80;37.00
12006;DHT22;6062;47.294;12.182;2023-02-19T03:10:07;7.80;36.50
12006;DHT22;6062;47.294;12.182;2023-02-19T03:12:38;7.90;36.50
12006;DHT22;6062;47.294;12.182;2023-02-19T03:15:26;7.90;35.90
12006;DHT22;6062;47.294;12.182;2023-02-19T03:18:15;7.90;36.40
12006;DHT22;6062;47.294;12.182;2023-02-19T03:21:03;7.90;35.90
12006;DHT22;6062;47.294;12.182;2023-02-19T03:23:32;7.90;35.20
12006;DHT22;6062;47.294;12.182;2023-02-19T03:26:19;7.90;35.60
12006;DHT22;6062;47.294;12.182;2023-02-19T03:28:48;7.90;35.60
12006;DHT22;6062;47.294;12.182;2023-02-19T03:31:37;7.90;35.40
12006;DHT22;6062;47.294;12.182;2023-02-19T03:34:09;7.80;34.70
12006;DHT22;6062;47.294;12.182;2023-02-19T03:36:49;7.80;35.30
12006;DHT22;6062;47.294;12.182;2023-02-19T03:39:21;7.80;35.00
12006;DHT22;6062;47.294;12.182;2023-02-19T03:44:44;7.80;36.20
12006;DHT22;6062;47.294;12.182;2023-02-19T03:47:19;7.80;36.80
12006;DHT22;6062;47.294;12.182;2023-02-19T03:55:23;7.70;35.50
12006;DHT22;6062;47.294;12.182;2023-02-19T03:58:04;7.70;35.70
12006;DHT22;6062;47.294;12.182;2023-02-19T04:00:50;7.70;35.70
12006;DHT22;6062;47.294;12.182;2023-02-19T04:03:25;7.70;35.50
12006;DHT22;6062;47.294;12.182;2023-02-19T04:06:28;7.70;35.50
12006;DHT22;6062;47.294;12.182;2023-02-19T04:08:59;7.60;34.90
12006;DHT22;6062;47.294;12.182;2023-02-19T04:11:28;7.60;35.10
12006;DHT22;6062;47.294;12.182;2023-02-19T04:14:14;7.60;35.40
12006;DHT22;6062;47.294;12.182;2023-02-19T04:16:47;7.60;35.50
12006;DHT22;6062;47.294;12.182;2023-02-19T04:19:20;7.60;35.50
12006;DHT22;6062;47.294;12.182;2023-02-19T04:21:49;7.50;35.30
12006;DHT22;6062;47.294;12.182;2023-02-19T04:24:22;7.50;35.30
12006;DHT22;6062;47.294;12.182;2023-02-19T04:26:53;7.50;36.30
12006;DHT22;6062;47.294;12.182;2023-02-19T04:29:20;7.50;35.40
12006;DHT22;6062;47.294;12.182;2023-02-19T04:31:45;7.50;35.50
12006;DHT22;6062;47.294;12.182;2023-02-19T04:34:11;7.50;36.50
12006;DHT22;6062;47.294;12.182;2023-02-19T04:36:37;7.50;35.70
12006;DHT22;6062;47.294;12.182;2023-02-19T04:39:02;7.50;35.40
12006;DHT22;6062;47.294;12.182;2023-02-19T04:41:28;7.50;35.70
12006;DHT22;6062;47.294;12.182;2023-02-19T04:43:54;7.50;36.20
12006;DHT22;6062;47.294;12.182;2023-02-19T04:46:20;7.50;36.10
12006;DHT22;6062;47.294;12.182;2023-02-19T04:48:45;7.50;36.50
12006;DHT22;6062;47.294;12.182;2023-02-19T04:51:11;7.50;36.80
12006;DHT22;6062;47.294;12.182;2023-02-19T04:53:37;7.50;36.60
12006;DHT22;6062;47.294;12.182;2023-02-19T04:56:07;7.50;36.80
12006;DHT22;6062;47.294;12.182;2023-02-19T04:58:34;7.50;37.40
12006;DHT22;6062;47.294;12.182;2023-02-19T05:01:00;7.50;37.40
12006;DHT22;6062;47.294;12.182;2023-02-19T05:03:26;7.50;37.30
12006;DHT22;6062;47.294;12.182;2023-02-19T05:05:51;7.60;37.10
12006;DHT22;6062;47.294;12.182;2023-02-19T05:08:17;7.50;37.10
12006;DHT22;6062;47.294;12.182;2023-02-19T05:10:43;7.50;37.10
12006;DHT22;6062;47.294;12.182;2023-02-19T05:13:09;7.50;36.90
12006;DHT22;6062;47.294;12.182;2023-02-19T05:15:35;7.50;36.90
12006;DHT22;6062;47.294;12.182;2023-02-19T05:18:00;7.50;37.10
12006;DHT22;6062;47.294;12.182;2023-02-19T05:20:26;7.50;36.90
12006;DHT22;6062;47.294;12.182;2023-02-19T05:22:52;7.50;37.20
12006;DHT22;6062;47.294;12.182;2023-02-19T05:25:18;7.50;37.30
12006;DHT22;6062;47.294;12.182;2023-02-19T05:27:43;7.50;37.90
12006;DHT22;6062;47.294;12.182;2023-02-19T05:30:10;7.50;36.80
12006;DHT22;6062;47.294;12.182;2023-02-19T05:32:37;7.40;37.00
12006;DHT22;6062;47.294;12.182;2023-02-19T05:35:03;7.40;37.70
12006;DHT22;6062;47.294;12.182;2023-02-19T05:37:29;7.40;38.20
12006;DHT22;6062;47.294;12.182;2023-02-19T05:39:55;7.40;38.40
12006;DHT22;6062;47.294;12.182;2023-02-19T05:42:21;7.40;39.50
12006;DHT22;6062;47.294;12.182;2023-02-19T05:44:46;7.40;41.80
12006;DHT22;6062;47.294;12.182;2023-02-19T05:47:12;7.40;42.10
12006;DHT22;6062;47.294;12.182;2023-02-19T05:49:37;7.30;43.10
12006;DHT22;6062;47.294;12.182;2023-02-19T05:52:03;7.20;43.90
12006;DHT22;6062;47.294;12.182;2023-02-19T05:54:30;7.10;45.20
12006;DHT22;6062;47.294;12.182;2023-02-19T05:56:56;7.00;45.70
12006;DHT22;6062;47.294;12.182;2023-02-19T05:59:24;6.80;47.10
12006;DHT22;6062;47.294;12.182;2023-02-19T06:01:51;6.60;48.20
12006;DHT22;6062;47.294;12.182;2023-02-19T06:04:19;6.50;48.50
12006;DHT22;6062;47.294;12.182;2023-02-19T06:06:45;6.30;49.20
12006;DHT22;6062;47.294;12.182;2023-02-19T06:09:12;6.20;50.50
12006;DHT22;6062;47.294;12.182;2023-02-19T06:11:38;6.00;50.50
12006;DHT22;6062;47.294;12.182;2023-02-19T06:14:05;5.90;51.10
12006;DHT22;6062;47.294;12.182;2023-02-19T06:16:31;5.80;50.80
12006;DHT22;6062;47.294;12.182;2023-02-19T06:19:00;5.70;50.40
12006;DHT22;6062;47.294;12.182;2023-02-19T06:21:28;5.60;50.50
12006;DHT22;6062;47.294;12.182;2023-02-19T06:23:53;5.50;50.40
12006;DHT22;6062;47.294;12.182;2023-02-19T06:26:23;5.50;50.60
12006;DHT22;6062;47.294;12.182;2023-02-19T06:28:51;5.40;51.30
12006;DHT22;6062;47.294;12.182;2023-02-19T06:31:19;5.30;51.60
12006;DHT22;6062;47.294;12.182;2023-02-19T06:33:45;5.30;53.30
12006;DHT22;6062;47.294;12.182;2023-02-19T06:36:14;5.20;54.40
12006;DHT22;6062;47.294;12.182;2023-02-19T06:38:42;5.10;53.80
12006;DHT22;6062;47.294;12.182;2023-02-19T06:41:08;5.00;53.30
12006;DHT22;6062;47.294;12.182;2023-02-19T06:43:34;5.00;53.20
12006;DHT22;6062;47.294;12.182;2023-02-19T06:46:02;4.90;53.20
12006;DHT22;6062;47.294;12.182;2023-02-19T06:48:30;4.90;55.60
12006;DHT22;6062;47.294;12.182;2023-02-19T06:50:56;4.80;54.10
12006;DHT22;6062;47.294;12.182;2023-02-19T06:53:22;4.80;53.70
12006;DHT22;6062;47.294;12.182;2023-02-19T06:56:00;4.80;53.40
12006;DHT22;6062;47.294;12.182;2023-02-19T06:58:28;4.80;53.40
12006;DHT22;6062;47.294;12.182;2023-02-19T07:00:54;4.90;53.50
12006;DHT22;6062;47.294;12.182;2023-02-19T07:03:20;5.00;53.10
12006;DHT22;6062;47.294;12.182;2023-02-19T07:05:46;5.00;54.20
12006;DHT22;6062;47.294;12.182;2023-02-19T07:08:12;5.10;53.70
12006;DHT22;6062;47.294;12.182;2023-02-19T07:10:38;5.20;53.30
12006;DHT22;6062;47.294;12.182;2023-02-19T07:13:04;5.30;53.30
12006;DHT22;6062;47.294;12.182;2023-02-19T07:15:30;5.40;53.00
12006;DHT22;6062;47.294;12.182;2023-02-19T07:17:55;5.50;52.80
12006;DHT22;6062;47.294;12.182;2023-02-19T07:20:21;5.50;52.50
12006;DHT22;6062;47.294;12.182;2023-02-19T07:22:47;5.60;52.50
12006;DHT22;6062;47.294;12.182;2023-02-19T07:25:12;5.70;52.10
12006;DHT22;6062;47.294;12.182;2023-02-19T07:27:38;5.80;52.30
12006;DHT22;6062;47.294;12.182;2023-02-19T07:30:05;5.90;52.30
12006;DHT22;6062;47.294;12.182;2023-02-19T07:32:31;6.10;51.70
12006;DHT22;6062;47.294;12.182;2023-02-19T07:34:57;6.10;51.40
12006;DHT22;6062;47.294;12.182;2023-02-19T07:37:23;6.30;51.10
12006;DHT22;6062;47.294;12.182;2023-02-19T07:39:49;6.40;51.00
12006;DHT22;6062;47.294;12.182;2023-02-19T07:42:14;6.50;51.30
12006;DHT22;6062;47.294;12.182;2023-02-19T07:44:40;6.60;51.10
12006;DHT22;6062;47.294;12.182;2023-02-19T07:47:06;6.70;50.90
12006;DHT22;6062;47.294;12.182;2023-02-19T07:49:31;6.80;50.70
12006;DHT22;6062;47.294;12.182;2023-02-19T07:51:58;6.90;50.80
12006;DHT22;6062;47.294;12.182;2023-02-19T07:54:23;7.00;50.40
12006;DHT22;6062;47.294;12.182;2023-02-19T07:56:49;7.10;50.00
12006;DHT22;6062;47.294;12.182;2023-02-19T07:59:15;7.20;49.90
12006;DHT22;6062;47.294;12.182;2023-02-19T08:01:43;7.30;50.00
12006;DHT22;6062;47.294;12.182;2023-02-19T08:04:28;7.30;50.00
12006;DHT22;6062;47.294;12.182;2023-02-19T08:06:54;7.40;50.30
12006;DHT22;6062;47.294;12.182;2023-02-19T08:09:19;7.60;50.30
12006;DHT22;6062;47.294;12.182;2023-02-19T08:11:45;7.70;49.90
12006;DHT22;6062;47.294;12.182;2023-02-19T08:14:29;7.80;49.50
12006;DHT22;6062;47.294;12.182;2023-02-19T08:16:55;7.90;49.60
12006;DHT22;6062;47.294;12.182;2023-02-19T08:19:21;8.10;50.20
12006;DHT22;6062;47.294;12.182;2023-02-19T08:21:47;8.30;50.30
12006;DHT22;6062;47.294;12.182;2023-02-19T08:24:12;8.50;49.80
12006;DHT22;6062;47.294;12.182;2023-02-19T08:26:38;8.80;48.80
12006;DHT22;6062;47.294;12.182;2023-02-19T08:29:05;9.00;48.30
12006;DHT22;6062;47.294;12.182;2023-02-19T08:31:32;9.30;48.30
12006;DHT22;6062;47.294;12.182;2023-02-19T08:33:59;9.50;48.40
12006;DHT22;6062;47.294;12.182;2023-02-19T08:36:24;9.90;48.70
12006;DHT22;6062;47.294;12.182;2023-02-19T08:38:50;10.30;48.50
12006;DHT22;6062;47.294;12.182;2023-02-19T08:41:16;10.70;48.60
12006;DHT22;6062;47.294;12.182;2023-02-19T08:43:42;11.20;47.80
12006;DHT22;6062;47.294;12.182;2023-02-19T08:46:10;11.80;46.10
12006;DHT22;6062;47.294;12.182;2023-02-19T08:48:37;12.30;44.50
12006;DHT22;6062;47.294;12.182;2023-02-19T08:51:06;12.70;42.30
12006;DHT22;6062;47.294;12.182;2023-02-19T08:53:35;12.90;42.00
12006;DHT22;6062;47.294;12.182;2023-02-19T08:56:10;13.00;42.20
12006;DHT22;6062;47.294;12.182;2023-02-19T08:58:37;13.10;41.50
12006;DHT22;6062;47.294;12.182;2023-02-19T09:01:08;13.20;41.60
12006;DHT22;6062;47.294;12.182;2023-02-19T09:03:34;13.30;41.60
12006;DHT22;6062;47.294;12.182;2023-02-19T09:06:00;13.40;40.90
12006;DHT22;6062;47.294;12.182;2023-02-19T09:08:26;13.50;40.40
12006;DHT22;6062;47.294;12.182;2023-02-19T09:10:59;13.60;40.40
12006;DHT22;6062;47.294;12.182;2023-02-19T09:13:27;13.60;40.00
12006;DHT22;6062;47.294;12.182;2023-02-19T09:15:53;13.60;40.90
12006;DHT22;6062;47.294;12.182;2023-02-19T09:18:21;13.80;41.10
12006;DHT22;6062;47.294;12.182;2023-02-19T09:20:48;14.00;40.30
12006;DHT22;6062;47.294;12.182;2023-02-19T09:23:14;14.20;39.30
12006;DHT22;6062;47.294;12.182;2023-02-19T09:25:39;14.40;38.70
12006;DHT22;6062;47.294;12.182;2023-02-19T09:28:05;14.40;38.40
12006;DHT22;6062;47.294;12.182;2023-02-19T09:30:31;14.50;37.30
12006;DHT22;6062;47.294;12.182;2023-02-19T09:32:56;14.40;37.10
12006;DHT22;6062;47.294;12.182;2023-02-19T09:35:22;14.30;37.70
12006;DHT22;6062;47.294;12.182;2023-02-19T09:37:48;14.10;37.30
12006;DHT22;6062;47.294;12.182;2023-02-19T09:40:13;13.90;37.60
12006;DHT22;6062;47.294;12.182;2023-02-19T09:42:46;13.80;38.90
12006;DHT22;6062;47.294;12.182;2023-02-19T09:45:20;13.80;39.90
12006;DHT22;6062;47.294;12.182;2023-02-19T09:47:53;14.00;40.30
12006;DHT22;6062;47.294;12.182;2023-02-19T09:50:33;14.40;39.80
12006;DHT22;6062;47.294;12.182;2023-02-19T09:53:23;14.80;40.30
12006;DHT22;6062;47.294;12.182;2023-02-19T09:55:52;15.20;40.00
12006;DHT22;6062;47.294;12.182;2023-02-19T09:58:27;15.80;38.50
12006;DHT22;6062;47.294;12.182;2023-02-19T10:01:00;16.20;37.70
12006;DHT22;6062;47.294;12.182;2023-02-19T10:03:30;16.60;37.30
12006;DHT22;6062;47.294;12.182;2023-02-19T10:06:05;17.00;36.20
12006;DHT22;6062;47.294;12.182;2023-02-19T10:08:38;17.20;34.90
12006;DHT22;6062;47.294;12.182;2023-02-19T10:11:05;17.40;34.90
12006;DHT22;6062;47.294;12.182;2023-02-19T10:13:42;17.40;35.20
12006;DHT22;6062;47.294;12.182;2023-02-19T10:16:14;17.50;35.50
12006;DHT22;6062;47.294;12.182;2023-02-19T10:18:49;17.60;35.40
12006;DHT22;6062;47.294;12.182;2023-02-19T10:21:18;17.90;34.70
12006;DHT22;6062;47.294;12.182;2023-02-19T10:23:49;18.10;35.10
12006;DHT22;6062;47.294;12.182;2023-02-19T10:26:22;18.30;34.20
12006;DHT22;6062;47.294;12.182;2023-02-19T10:28:48;18.50;33.00
12006;DHT22;6062;47.294;12.182;2023-02-19T10:31:22;18.60;32.70
12006;DHT22;6062;47.294;12.182;2023-02-19T10:33:54;18.60;32.80
12006;DHT22;6062;47.294;12.182;2023-02-19T10:36:31;18.70;33.50
12006;DHT22;6062;47.294;12.182;2023-02-19T10:39:02;18.80;32.00
12006;DHT22;6062;47.294;12.182;2023-02-19T10:41:45;18.90;31.80
12006;DHT22;6062;47.294;12.182;2023-02-19T10:44:16;18.70;30.90
12006;DHT22;6062;47.294;12.182;2023-02-19T10:46:50;18.60;31.40
12006;DHT22;6062;47.294;12.182;2023-02-19T10:49:39;18.40;32.00
12006;DHT22;6062;47.294;12.182;2023-02-19T10:52:20;18.30;32.20
12006;DHT22;6062;47.294;12.182;2023-02-19T10:54:54;18.30;32.90
12006;DHT22;6062;47.294;12.182;2023-02-19T10:57:24;18.40;33.10
12006;DHT22;6062;47.294;12.182;2023-02-19T11:02:41;19.00;32.90
12006;DHT22;6062;47.294;12.182;2023-02-19T11:07:37;19.40;32.50
12006;DHT22;6062;47.294;12.182;2023-02-19T11:10:25;19.50;31.40
12006;DHT22;6062;47.294;12.182;2023-02-19T11:13:03;19.60;31.40
12006;DHT22;6062;47.294;12.182;2023-02-19T11:15:34;19.70;31.40
12006;DHT22;6062;47.294;12.182;2023-02-19T11:18:24;19.90;31.10
12006;DHT22;6062;47.294;12.182;2023-02-19T11:21:05;20.00;30.10
12006;DHT22;6062;47.294;12.182;2023-02-19T11:23:36;20.10;29.20
12006;DHT22;6062;47.294;12.182;2023-02-19T11:26:23;20.00;29.60
12006;DHT22;6062;47.294;12.182;2023-02-19T11:28:56;19.80;29.90
12006;DHT22;6062;47.294;12.182;2023-02-19T11:31:29;19.60;30.00
12006;DHT22;6062;47.294;12.182;2023-02-19T11:33:58;19.40;30.40
12006;DHT22;6062;47.294;12.182;2023-02-19T11:36:38;19.10;30.60
12006;DHT22;6062;47.294;12.182;2023-02-19T11:39:20;18.90;30.70
12006;DHT22;6062;47.294;12.182;2023-02-19T11:48:18;17.90;32.40
12006;DHT22;6062;47.294;12.182;2023-02-19T11:54:49;17.00;33.50
12006;DHT22;6062;47.294;12.182;2023-02-19T11:57:37;16.40;34.20
12006;DHT22;6062;47.294;12.182;2023-02-19T12:09:05;14.80;37.00
12006;DHT22;6062;47.294;12.182;2023-02-19T12:18:41;13.40;40.80
12006;DHT22;6062;47.294;12.182;2023-02-19T12:27:32;12.80;41.80
12006;DHT22;6062;47.294;12.182;2023-02-19T12:30:47;12.60;42.40
12006;DHT22;6062;47.294;12.182;2023-02-19T12:44:50;12.00;43.10
12006;DHT22;6062;47.294;12.182;2023-02-19T12:47:24;12.00;43.30
12006;DHT22;6062;47.294;12.182;2023-02-19T12:50:24;12.00;43.40
12006;DHT22;6062;47.294;12.182;2023-02-19T12:52:55;12.00;43.40
12006;DHT22;6062;47.294;12.182;2023-02-19T12:56:02;12.00;43.30
12006;DHT22;6062;47.294;12.182;2023-02-19T12:58:44;12.00;43.20
12006;DHT22;6062;47.294;12.182;2023-02-19T13:01:25;12.00;43.20
12006;DHT22;6062;47.294;12.182;2023-02-19T13:04:21;12.00;43.60
12006;DHT22;6062;47.294;12.182;2023-02-19T13:07:10;11.90;43.60
12006;DHT22;6062;47.294;12.182;2023-02-19T13:12:31;11.80;43.60
12006;DHT22;6062;47.294;12.182;2023-02-19T13:15:14;11.70;43.80
12006;DHT22;6062;47.294;12.182;2023-02-19T13:17:54;11.70;44.10
12006;DHT22;6062;47.294;12.182;2023-02-19T13:20:29;11.60;44.40
12006;DHT22;6062;47.294;12.182;2023-02-19T13:23:33;11.50;44.50
12006;DHT22;6062;47.294;12.182;2023-02-19T13:32:39;11.10;44.40
12006;DHT22;6062;47.294;12.182;2023-02-19T13:35:28;11.00;44.60
12006;DHT22;6062;47.294;12.182;2023-02-19T13:38:19;10.80;44.80
12006;DHT22;6062;47.294;12.182;2023-02-19T13:41:16;10.70;45.00
12006;DHT22;6062;47.294;12.182;2023-02-19T13:43:43;10.50;45.70
12006;DHT22;6062;47.294;12.182;2023-02-19T13:46:15;10.40;45.70
12006;DHT22;6062;47.294;12.182;2023-02-19T13:48:42;10.20;45.50
12006;DHT22;6062;47.294;12.182;2023-02-19T14:14:35;9.40;48.20
12006;DHT22;6062;47.294;12.182;2023-02-19T14:19:43;9.30;48.00
12006;DHT22;6062;47.294;12.182;2023-02-19T14:31:42;9.20;48.70
12006;DHT22;6062;47.294;12.182;2023-02-19T14:33:59;9.10;49.10
12006;DHT22;6062;47.294;12.182;2023-02-19T14:36:35;9.20;49.10
12006;DHT22;6062;47.294;12.182;2023-02-19T14:41:47;9.10;49.00
12006;DHT22;6062;47.294;12.182;2023-02-19T14:44:29;9.10;48.90
12006;DHT22;6062;47.294;12.182;2023-02-19T14:47:04;9.10;48.60
12006;DHT22;6062;47.294;12.182;2023-02-19T14:49:43;9.00;48.80
12006;DHT22;6062;47.294;12.182;2023-02-19T14:52:23;9.00;48.50
12006;DHT22;6062;47.294;12.182;2023-02-19T14:55:06;8.90;48.80
12006;DHT22;6062;47.294;12.182;2023-02-19T14:57:39;8.90;48.90
12006;DHT22;6062;47.294;12.182;2023-02-19T15:00:40;8.90;49.30
12006;DHT22;6062;47.294;12.182;2023-02-19T15:06:06;8.80;49.20
12006;DHT22;6062;47.294;12.182;2023-02-19T15:08:44;8.70;48.90
12006;DHT22;6062;47.294;12.182;2023-02-19T15:11:21;8.60;48.90
12006;DHT22;6062;47.294;12.182;2023-02-19T15:13:56;8.60;49.00
12006;DHT22;6062;47.294;12.182;2023-02-19T15:16:24;8.50;49.00
12006;DHT22;6062;47.294;12.182;2023-02-19T15:18:53;8.40;49.10
12006;DHT22;6062;47.294;12.182;2023-02-19T15:21:28;8.40;49.40
12006;DHT22;6062;47.294;12.182;2023-02-19T15:23:59;8.40;50.00
12006;DHT22;6062;47.294;12.182;2023-02-19T15:26:35;8.30;50.10
12006;DHT22;6062;47.294;12.182;2023-02-19T15:29:09;8.30;50.10
12006;DHT22;6062;47.294;12.182;2023-02-19T15:31:36;8.20;49.80
12006;DHT22;6062;47.294;12.182;2023-02-19T15:34:25;8.20;49.80
12006;DHT22;6062;47.294;12.182;2023-02-19T15:37:04;8.10;49.70
12006;DHT22;6062;47.294;12.182;2023-02-19T15:39:38;8.10;49.80
12006;DHT22;6062;47.294;12.182;2023-02-19T15:42:07;8.00;49.80
12006;DHT22;6062;47.294;12.182;2023-02-19T15:50:23;7.70;50.10
12006;DHT22;6062;47.294;12.182;2023-02-19T16:01:49;7.20;50.90
12006;DHT22;6062;47.294;12.182;2023-02-19T16:04:16;7.10;50.60
12006;DHT22;6062;47.294;12.182;2023-02-19T16:06:57;7.00;50.90
12006;DHT22;6062;47.294;12.182;2023-02-19T16:09:38;6.90;51.10
12006;DHT22;6062;47.294;12.182;2023-02-19T16:12:22;6.80;51.20
12006;DHT22;6062;47.294;12.182;2023-02-19T16:14:49;6.60;51.50
12006;DHT22;6062;47.294;12.182;2023-02-19T16:17:20;6.50;51.30
12006;DHT22;6062;47.294;12.182;2023-02-19T16:19:58;6.40;51.80
12006;DHT22;6062;47.294;12.182;2023-02-19T16:22:28;6.30;52.00
12006;DHT22;6062;47.294;12.182;2023-02-19T16:25:01;6.20;51.90
12006;DHT22;6062;47.294;12.182;2023-02-19T16:27:33;6.10;52.10
12006;DHT22;6062;47.294;12.182;2023-02-19T16:30:25;6.00;52.40
12006;DHT22;6062;47.294;12.182;2023-02-19T16:36:14;5.80;53.40
12006;DHT22;6062;47.294;12.182;2023-02-19T16:44:37;5.50;53.00
12006;DHT22;6062;47.294;12.182;2023-02-19T16:47:06;5.30;53.50
12006;DHT22;6062;47.294;12.182;2023-02-19T16:49:39;5.30;53.40
12006;DHT22;6062;47.294;12.182;2023-02-19T16:52:08;5.20;53.50
12006;DHT22;6062;47.294;12.182;2023-02-19T16:54:37;5.10;53.70
12006;DHT22;6062;47.294;12.182;2023-02-19T16:57:03;5.10;54.10
12006;DHT22;6062;47.294;12.182;2023-02-19T16:59:28;5.00;54.10
12006;DHT22;6062;47.294;12.182;2023-02-19T17:01:54;5.00;54.20
12006;DHT22;6062;47.294;12.182;2023-02-19T17:04:20;5.00;54.60
12006;DHT22;6062;47.294;12.182;2023-02-19T17:06:46;4.90;54.80
12006;DHT22;6062;47.294;12.182;2023-02-19T17:09:12;4.80;54.80
12006;DHT22;6062;47.294;12.182;2023-02-19T17:11:37;4.80;55.70
12006;DHT22;6062;47.294;12.182;2023-02-19T17:14:03;4.70;55.70
12006;DHT22;6062;47.294;12.182;2023-02-19T17:16:31;4.70;55.50
12006;DHT22;6062;47.294;12.182;2023-02-19T17:19:17;4.60;55.80
12006;DHT22;6062;47.294;12.182;2023-02-19T17:21:44;4.60;55.60
12006;DHT22;6062;47.294;12.182;2023-02-19T17:24:11;4.50;56.50
12006;DHT22;6062;47.294;12.182;2023-02-19T17:26:37;4.50;56.10
12006;DHT22;6062;47.294;12.182;2023-02-19T17:29:05;4.40;56.20
12006;DHT22;6062;47.294;12.182;2023-02-19T17:31:33;4.40;56.70
12006;DHT22;6062;47.294;12.182;2023-02-19T17:33:58;4.30;56.70
12006;DHT22;6062;47.294;12.182;2023-02-19T17:36:29;4.30;56.80
12006;DHT22;6062;47.294;12.182;2023-02-19T17:38:57;4.20;57.00
12006;DHT22;6062;47.294;12.182;2023-02-19T17:41:24;4.20;57.10
12006;DHT22;6062;47.294;12.182;2023-02-19T17:43:50;4.20;57.30
12006;DHT22;6062;47.294;12.182;2023-02-19T17:46:24;4.10;57.40
12006;DHT22;6062;47.294;12.182;2023-02-19T17:48:51;4.10;57.80
12006;DHT22;6062;47.294;12.182;2023-02-19T17:51:18;4.10;57.70
12006;DHT22;6062;47.294;12.182;2023-02-19T17:53:44;4.10;57.80
12006;DHT22;6062;47.294;12.182;2023-02-19T17:56:15;4.10;57.90
12006;DHT22;6062;47.294;12.182;2023-02-19T17:58:42;4.10;58.10
12006;DHT22;6062;47.294;12.182;2023-02-19T18:01:08;4.10;57.60
12006;DHT22;6062;47.294;12.182;2023-02-19T18:03:33;4.10;57.50
12006;DHT22;6062;47.294;12.182;2023-02-19T18:05:59;4.10;57.50
12006;DHT22;6062;47.294;12.182;2023-02-19T18:08:25;4.00;57.60
12006;DHT22;6062;47.294;12.182;2023-02-19T18:10:51;4.00;57.80
12006;DHT22;6062;47.294;12.182;2023-02-19T18:13:17;4.00;57.80
12006;DHT22;6062;47.294;12.182;2023-02-19T18:15:43;4.00;58.00
12006;DHT22;6062;47.294;12.182;2023-02-19T18:18:09;4.00;58.20
12006;DHT22;6062;47.294;12.182;2023-02-19T18:20:34;4.00;58.60
12006;DHT22;6062;47.294;12.182;2023-02-19T18:23:01;3.90;58.40
12006;DHT22;6062;47.294;12.182;2023-02-19T18:25:27;3.90;58.60
12006;DHT22;6062;47.294;12.182;2023-02-19T18:27:52;3.90;58.50
12006;DHT22;6062;47.294;12.182;2023-02-19T18:30:20;3.90;58.40
12006;DHT22;6062;47.294;12.182;2023-02-19T18:32:47;3.90;58.80
12006;DHT22;6062;47.294;12.182;2023-02-19T18:35:14;3.90;58.50
12006;DHT22;6062;47.294;12.182;2023-02-19T18:37:41;3.90;58.50
12006;DHT22;6062;47.294;12.182;2023-02-19T18:40:08;3.90;58.50
12006;DHT22;6062;47.294;12.182;2023-02-19T18:42:34;3.90;58.50
12006;DHT22;6062;47.294;12.182;2023-02-19T18:45:00;3.90;58.40
12006;DHT22;6062;47.294;12.182;2023-02-19T18:47:25;3.90;58.50